createdAt,value
2023-05-04T00:01:11.642Z,5.48
2023-05-04T00:03:38.939Z,5.36
2023-05-04T00:06:05.988Z,5.24
2023-05-04T00:08:32.841Z,4.92
2023-05-04T00:10:59.698Z,4.86
2023-05-04T00:13:26.921Z,4.92
2023-05-04T00:15:53.802Z,4.76
2023-05-04T00:18:20.848Z,5.15
2023-05-04T00:20:47.741Z,5.29
2023-05-04T00:23:14.635Z,4.85
2023-05-04T00:25:41.422Z,4.83
2023-05-04T00:28:08.305Z,4.69
2023-05-04T00:30:35.116Z,4.67
2023-05-04T00:33:02.274Z,4.85
2023-05-04T00:35:31.817Z,4.67
2023-05-04T00:37:58.704Z,4.93
2023-05-04T00:40:25.719Z,4.95
2023-05-04T00:42:52.632Z,4.99
2023-05-04T00:45:19.540Z,4.77
2023-05-04T00:47:46.762Z,4.74
2023-05-04T00:50:14.575Z,4.66
2023-05-04T00:52:43.948Z,4.35
2023-05-04T00:55:11.652Z,4.60
2023-05-04T00:57:39.579Z,4.82
2023-05-04T01:00:08.816Z,4.45
2023-05-04T01:02:35.802Z,4.67
2023-05-04T01:05:03.029Z,4.66
2023-05-04T01:07:58.890Z,4.51
2023-05-04T01:10:53.537Z,4.31
2023-05-04T01:13:22.732Z,4.52
2023-05-04T01:15:50.982Z,4.36
2023-05-04T01:18:18.047Z,4.19
2023-05-04T01:20:44.913Z,4.02
2023-05-04T01:23:12.085Z,3.92
2023-05-04T01:25:52.277Z,3.65
2023-05-04T01:28:27.747Z,3.66
2023-05-04T01:30:57.895Z,3.83
2023-05-04T01:33:25.760Z,3.93
2023-05-04T01:35:52.765Z,3.68
2023-05-04T01:38:20.071Z,3.76
2023-05-04T01:40:46.953Z,4.19
2023-05-04T01:43:13.831Z,3.64
2023-05-04T01:45:40.670Z,3.97
2023-05-04T01:48:07.704Z,4.10
2023-05-04T01:50:34.571Z,4.08
2023-05-04T01:53:02.380Z,4.00
2023-05-04T01:55:29.213Z,3.74
2023-05-04T01:57:56.066Z,4.10
2023-05-04T02:00:23.063Z,3.88
2023-05-04T02:02:50.102Z,3.86
2023-05-04T02:05:19.338Z,3.93
2023-05-04T02:07:46.428Z,3.59
2023-05-04T02:10:13.344Z,3.67
2023-05-04T02:12:43.241Z,3.85
2023-05-04T02:15:10.620Z,3.81
2023-05-04T02:17:37.469Z,3.78
2023-05-04T02:20:05.302Z,3.51
2023-05-04T02:22:32.718Z,3.46
2023-05-04T02:24:59.546Z,3.55
2023-05-04T02:27:26.403Z,2.85
2023-05-04T02:29:53.220Z,2.92
2023-05-04T02:32:20.249Z,3.09
2023-05-04T02:34:47.245Z,3.14
2023-05-04T02:37:14.160Z,3.13
2023-05-04T02:39:40.989Z,3.16
2023-05-04T02:42:07.945Z,3.30
2023-05-04T02:44:34.829Z,3.15
2023-05-04T02:47:02.361Z,3.32
2023-05-04T02:49:30.509Z,3.19
2023-05-04T02:51:57.388Z,3.00
2023-05-04T02:54:24.230Z,2.87
2023-05-04T02:56:51.082Z,2.64
2023-05-04T02:59:17.958Z,2.82
2023-05-04T03:01:44.991Z,2.95
2023-05-04T03:04:11.960Z,2.78
2023-05-04T03:06:38.825Z,3.04
2023-05-04T03:09:05.862Z,3.00
2023-05-04T03:11:32.744Z,2.92
2023-05-04T03:13:59.585Z,2.81
2023-05-04T03:16:26.532Z,2.94
2023-05-04T03:21:35.371Z,2.61
2023-05-04T03:24:02.313Z,2.91
2023-05-04T03:26:29.209Z,2.66
2023-05-04T03:28:56.079Z,2.28
2023-05-04T03:31:23.251Z,2.86
2023-05-04T03:33:52.497Z,2.50
2023-05-04T03:36:20.153Z,2.57
2023-05-04T03:38:47.061Z,2.63
2023-05-04T03:41:13.971Z,2.38
2023-05-04T03:43:40.930Z,2.55
2023-05-04T03:46:08.121Z,2.34
2023-05-04T03:48:35.081Z,2.26
2023-05-04T03:51:02.105Z,2.58
2023-05-04T03:53:28.988Z,2.52
2023-05-04T03:55:56.466Z,2.52
2023-05-04T03:58:23.350Z,2.20
2023-05-04T04:00:50.289Z,2.57
2023-05-04T04:03:17.678Z,2.17
2023-05-04T04:05:44.801Z,2.57
2023-05-04T04:08:11.709Z,2.86
2023-05-04T04:10:38.583Z,2.75
2023-05-04T04:13:05.632Z,2.65
2023-05-04T04:15:32.600Z,2.42
2023-05-04T04:17:59.453Z,2.77
2023-05-04T04:20:26.641Z,2.81
2023-05-04T04:22:53.712Z,2.70
2023-05-04T04:25:20.691Z,2.77
2023-05-04T04:27:47.541Z,3.03
2023-05-04T04:30:14.723Z,2.98
2023-05-04T04:32:41.663Z,3.11
2023-05-04T04:35:09.054Z,2.99
2023-05-04T04:37:36.139Z,2.98
2023-05-04T04:40:04.364Z,3.30
2023-05-04T04:42:32.608Z,3.25
2023-05-04T04:44:59.684Z,3.40
2023-05-04T04:47:27.117Z,3.61
2023-05-04T04:49:54.233Z,3.38
2023-05-04T04:52:21.133Z,3.46
2023-05-04T04:54:48.009Z,3.46
2023-05-04T04:57:14.927Z,3.37
2023-05-04T04:59:41.807Z,3.59
2023-05-04T05:02:09.864Z,3.75
2023-05-04T05:04:39.741Z,3.75
2023-05-04T05:07:09.123Z,3.77
2023-05-04T05:09:36.149Z,3.99
2023-05-04T05:12:03.134Z,3.91
2023-05-04T05:14:31.862Z,4.13
2023-05-04T05:16:59.700Z,4.58
2023-05-04T05:19:26.686Z,4.62
2023-05-04T05:21:53.531Z,4.85
2023-05-04T05:24:20.490Z,5.19
2023-05-04T05:26:47.451Z,5.27
2023-05-04T05:29:14.367Z,5.28
2023-05-04T05:31:41.489Z,5.45
2023-05-04T05:34:08.328Z,5.52
2023-05-04T05:36:35.176Z,5.71
2023-05-04T05:39:02.028Z,5.73
2023-05-04T05:41:28.869Z,6.21
2023-05-04T05:43:56.146Z,6.54
2023-05-04T05:46:25.184Z,6.41
2023-05-04T05:48:52.125Z,6.49
2023-05-04T05:51:18.921Z,6.71
2023-05-04T05:53:45.761Z,6.47
2023-05-04T05:56:13.470Z,6.71
2023-05-04T05:58:40.434Z,7.00
2023-05-04T06:01:07.408Z,7.13
2023-05-04T06:03:34.416Z,7.28
2023-05-04T06:06:01.440Z,7.74
2023-05-04T06:08:28.284Z,7.81
2023-05-04T06:10:56.601Z,7.74
2023-05-04T06:13:23.561Z,7.80
2023-05-04T06:15:55.264Z,8.05
2023-05-04T06:18:22.144Z,8.26
2023-05-04T06:20:49.041Z,8.70
2023-05-04T06:23:16.724Z,8.99
2023-05-04T06:25:43.701Z,9.34
2023-05-04T06:28:10.551Z,9.33
2023-05-04T06:30:37.439Z,9.51
2023-05-04T06:33:04.727Z,9.75
2023-05-04T06:35:31.845Z,10.06
2023-05-04T06:37:58.772Z,9.93
2023-05-04T06:40:26.678Z,10.30
2023-05-04T06:42:53.674Z,10.49
2023-05-04T06:45:20.590Z,10.46
2023-05-04T06:47:47.688Z,10.34
2023-05-04T06:50:15.160Z,10.42
2023-05-04T06:52:43.791Z,10.64
2023-05-04T06:55:11.021Z,11.00
2023-05-04T06:57:38.177Z,11.11
2023-05-04T07:00:06.339Z,11.42
2023-05-04T07:02:33.468Z,11.16
2023-05-04T07:05:01.136Z,11.26
2023-05-04T07:07:28.105Z,11.63
2023-05-04T07:09:54.967Z,11.89
2023-05-04T07:12:21.792Z,11.47
2023-05-04T07:14:48.658Z,11.72
2023-05-04T07:17:15.573Z,11.86
2023-05-04T07:19:42.522Z,12.37
2023-05-04T07:22:09.384Z,12.14
2023-05-04T07:24:36.246Z,11.88
2023-05-04T07:27:03.391Z,12.19
2023-05-04T07:29:30.247Z,12.41
2023-05-04T07:31:57.143Z,12.27
2023-05-04T07:34:33.954Z,12.63
2023-05-04T07:37:09.193Z,12.60
2023-05-04T07:39:36.842Z,13.05
2023-05-04T07:42:04.364Z,13.16
2023-05-04T07:44:31.753Z,13.13
2023-05-04T07:46:59.568Z,12.39
2023-05-04T07:49:27.101Z,13.10
2023-05-04T07:51:54.050Z,13.41
2023-05-04T07:54:22.589Z,13.67
2023-05-04T07:56:50.088Z,13.11
2023-05-04T07:59:20.541Z,13.43
2023-05-04T08:01:47.601Z,13.44
2023-05-04T08:04:14.466Z,13.56
2023-05-04T08:06:41.856Z,13.57
2023-05-04T08:09:09.051Z,13.81
2023-05-04T08:11:36.053Z,13.94
2023-05-04T08:14:02.992Z,13.81
2023-05-04T08:16:29.898Z,13.71
2023-05-04T08:18:57.468Z,13.95
2023-05-04T08:21:24.329Z,14.57
2023-05-04T08:23:51.324Z,14.68
2023-05-04T08:26:18.150Z,14.32
2023-05-04T08:28:46.276Z,14.56
2023-05-04T08:31:13.702Z,14.48
2023-05-04T08:33:40.687Z,14.66
2023-05-04T08:36:08.920Z,15.06
2023-05-04T08:38:36.046Z,14.94
2023-05-04T08:41:04.704Z,15.35
2023-05-04T08:43:34.553Z,15.29
2023-05-04T08:46:01.488Z,15.12
2023-05-04T08:48:28.386Z,15.10
2023-05-04T08:50:55.812Z,14.88
2023-05-04T08:53:23.710Z,15.36
2023-05-04T08:55:52.836Z,15.23
2023-05-04T08:58:22.358Z,15.08
2023-05-04T09:00:49.696Z,15.17
2023-05-04T09:03:17.433Z,14.88
2023-05-04T09:05:46.464Z,15.88
2023-05-04T09:08:14.098Z,15.61
2023-05-04T09:10:41.120Z,15.73
2023-05-04T09:13:08.684Z,15.86
2023-05-04T09:15:35.567Z,15.67
2023-05-04T09:18:06.751Z,16.34
2023-05-04T09:20:49.765Z,15.96
2023-05-04T09:23:18.319Z,15.47
2023-05-04T09:25:52.849Z,15.47
2023-05-04T09:28:23.000Z,15.99
2023-05-04T09:30:49.923Z,15.55
2023-05-04T09:33:17.004Z,16.15
2023-05-04T09:35:47.236Z,15.81
2023-05-04T09:38:31.701Z,16.32
2023-05-04T09:40:58.670Z,16.22
2023-05-04T09:43:25.466Z,16.41
2023-05-04T09:45:52.420Z,16.66
2023-05-04T09:48:25.865Z,16.38
2023-05-04T09:50:56.702Z,16.41
2023-05-04T09:53:25.433Z,16.65
2023-05-04T09:56:08.037Z,16.93
2023-05-04T09:58:36.037Z,16.60
2023-05-04T10:01:03.703Z,16.76
2023-05-04T10:03:31.933Z,16.55
2023-05-04T10:06:00.732Z,16.23
2023-05-04T10:08:28.750Z,16.09
2023-05-04T10:10:56.967Z,16.29
2023-05-04T10:13:24.845Z,16.74
2023-05-04T10:16:17.066Z,16.84
2023-05-04T10:19:11.678Z,17.09
2023-05-04T10:21:52.223Z,17.36
2023-05-04T10:24:34.315Z,17.48
2023-05-04T10:27:21.734Z,17.48
2023-05-04T10:29:50.956Z,17.40
2023-05-04T10:32:19.942Z,17.37
2023-05-04T10:34:47.460Z,17.29
2023-05-04T10:37:19.558Z,17.71
2023-05-04T10:39:56.307Z,17.25
2023-05-04T10:42:23.238Z,17.34
2023-05-04T10:44:57.229Z,17.51
2023-05-04T10:47:30.174Z,17.66
2023-05-04T10:50:15.851Z,18.14
2023-05-04T10:52:52.265Z,17.55
2023-05-04T10:55:20.340Z,17.87
2023-05-04T10:57:54.012Z,17.88
2023-05-04T11:00:21.410Z,18.37
2023-05-04T11:02:49.896Z,18.26
2023-05-04T11:05:20.526Z,17.86
2023-05-04T11:07:51.090Z,18.14
2023-05-04T11:10:23.269Z,17.57
2023-05-04T11:12:50.681Z,17.54
2023-05-04T11:15:18.287Z,17.51
2023-05-04T11:17:54.173Z,18.19
2023-05-04T11:20:27.480Z,17.67
2023-05-04T11:22:55.105Z,17.91
2023-05-04T11:25:29.132Z,18.24
2023-05-04T11:27:56.295Z,18.96
2023-05-04T11:30:34.408Z,18.80
2023-05-04T11:33:03.908Z,18.43
2023-05-04T11:35:31.049Z,18.57
2023-05-04T11:37:58.044Z,18.98
2023-05-04T11:40:27.143Z,19.05
2023-05-04T11:42:56.934Z,19.32
2023-05-04T11:45:27.419Z,19.72
2023-05-04T11:47:56.936Z,19.33
2023-05-04T11:50:25.528Z,19.93
2023-05-04T11:53:03.939Z,19.40
2023-05-04T11:55:31.736Z,20.05
2023-05-04T11:58:01.491Z,20.05
2023-05-04T12:00:58.058Z,19.68
2023-05-04T12:03:32.697Z,19.76
2023-05-04T12:06:10.993Z,20.25
2023-05-04T12:08:47.730Z,20.31
2023-05-04T12:11:26.123Z,20.57
2023-05-04T12:14:02.524Z,20.73
2023-05-04T12:16:29.562Z,20.98
2023-05-04T12:19:07.817Z,21.61
2023-05-04T12:21:35.482Z,21.60
2023-05-04T12:24:04.682Z,21.48
2023-05-04T12:26:31.600Z,21.48
2023-05-04T12:28:58.735Z,20.96
2023-05-04T12:31:25.837Z,21.59
2023-05-04T12:33:53.254Z,20.30
2023-05-04T12:36:20.149Z,20.10
2023-05-04T12:38:47.078Z,20.48
2023-05-04T12:41:14.020Z,19.95
2023-05-04T12:43:41.064Z,21.19
2023-05-04T12:46:08.055Z,21.03
2023-05-04T12:48:35.125Z,20.91
2023-05-04T12:51:04.341Z,21.19
2023-05-04T12:53:32.486Z,20.94
2023-05-04T12:56:00.679Z,21.08
2023-05-04T12:58:27.865Z,20.73
2023-05-04T13:00:55.665Z,20.19
2023-05-04T13:03:22.878Z,19.90
2023-05-04T13:05:50.048Z,20.19
2023-05-04T13:08:18.335Z,21.20
2023-05-04T13:10:46.512Z,20.89
2023-05-04T13:13:16.399Z,20.57
2023-05-04T13:15:44.383Z,21.04
2023-05-04T13:18:11.474Z,20.72
2023-05-04T13:20:39.304Z,20.80
2023-05-04T13:23:06.324Z,20.96
2023-05-04T13:25:33.420Z,20.27
2023-05-04T13:28:00.600Z,19.67
2023-05-04T13:30:28.269Z,19.56
2023-05-04T13:32:55.369Z,20.20
2023-05-04T13:35:24.015Z,20.51
2023-05-04T13:37:51.726Z,20.38
2023-05-04T13:40:18.712Z,20.29
2023-05-04T13:42:45.686Z,20.14
2023-05-04T13:45:13.372Z,19.95
2023-05-04T13:47:40.944Z,19.91
2023-05-04T13:50:08.727Z,19.78
2023-05-04T13:52:36.296Z,19.97
2023-05-04T13:55:03.559Z,20.00
2023-05-04T13:57:30.838Z,20.27
2023-05-04T14:00:05.731Z,20.43
2023-05-04T14:02:40.751Z,20.56
2023-05-04T14:05:08.544Z,20.40
2023-05-04T14:07:36.023Z,20.05
2023-05-04T14:10:03.475Z,20.08
2023-05-04T14:12:30.379Z,20.61
2023-05-04T14:14:57.647Z,20.50
2023-05-04T14:17:24.941Z,20.51
2023-05-04T14:19:51.786Z,20.27
2023-05-04T14:22:18.894Z,19.73
2023-05-04T14:24:45.682Z,19.74
2023-05-04T14:27:12.604Z,20.56
2023-05-04T14:29:39.528Z,21.44
2023-05-04T14:32:06.612Z,21.71
2023-05-04T14:34:33.687Z,21.79
2023-05-04T14:37:00.704Z,21.73
2023-05-04T14:39:27.553Z,21.36
2023-05-04T14:41:54.586Z,20.50
2023-05-04T14:44:22.853Z,20.05
2023-05-04T14:46:49.820Z,20.33
2023-05-04T14:49:28.307Z,20.28
2023-05-04T14:52:03.189Z,20.02
2023-05-04T14:54:30.063Z,20.29
2023-05-04T14:56:56.992Z,20.47
2023-05-04T14:59:23.817Z,20.43
2023-05-04T15:01:50.905Z,21.07
2023-05-04T15:04:17.899Z,21.42
2023-05-04T15:06:44.741Z,21.34
2023-05-04T15:09:11.766Z,21.37
2023-05-04T15:11:38.926Z,21.71
2023-05-04T15:14:05.755Z,21.88
2023-05-04T15:16:33.398Z,21.03
2023-05-04T15:19:00.559Z,21.80
2023-05-04T15:21:28.084Z,21.96
2023-05-04T15:23:55.212Z,21.67
2023-05-04T15:26:22.393Z,22.08
2023-05-04T15:28:49.944Z,21.94
2023-05-04T15:31:18.210Z,21.48
2023-05-04T15:33:45.224Z,22.13
2023-05-04T15:36:12.289Z,21.78
2023-05-04T15:38:39.208Z,21.51
2023-05-04T15:41:06.895Z,21.71
2023-05-04T15:43:34.409Z,22.59
2023-05-04T15:46:01.510Z,22.84
2023-05-04T15:48:28.402Z,21.18
2023-05-04T15:50:55.376Z,22.58
2023-05-04T15:53:22.314Z,23.54
2023-05-04T15:55:51.287Z,23.98
2023-05-04T15:58:18.649Z,23.59
2023-05-04T16:00:46.280Z,22.85
2023-05-04T16:03:13.210Z,22.50
2023-05-04T16:05:40.360Z,22.19
2023-05-04T16:08:07.185Z,21.37
2023-05-04T16:10:34.459Z,22.02
2023-05-04T16:13:04.455Z,21.45
2023-05-04T16:15:31.473Z,21.44
2023-05-04T16:17:58.450Z,21.00
2023-05-04T16:20:27.041Z,21.04
2023-05-04T16:22:53.904Z,20.77
2023-05-04T16:25:20.757Z,21.31
2023-05-04T16:27:47.738Z,20.66
2023-05-04T16:30:15.835Z,20.27
2023-05-04T16:32:42.796Z,20.03
2023-05-04T16:35:09.876Z,20.13
2023-05-04T16:37:38.332Z,19.80
2023-05-04T16:40:15.328Z,19.64
2023-05-04T16:42:43.066Z,19.22
2023-05-04T16:45:12.575Z,19.18
2023-05-04T16:47:41.180Z,19.03
2023-05-04T16:50:12.343Z,19.38
2023-05-04T16:52:40.206Z,19.08
2023-05-04T16:55:10.635Z,19.09
2023-05-04T16:57:38.603Z,18.84
2023-05-04T17:00:09.604Z,18.81
2023-05-04T17:02:36.779Z,18.86
2023-05-04T17:05:06.899Z,18.80
2023-05-04T17:07:34.326Z,19.08
2023-05-04T17:10:01.320Z,18.76
2023-05-04T17:12:29.169Z,18.59
2023-05-04T17:14:56.164Z,18.54
2023-05-04T17:17:23.098Z,18.11
2023-05-04T17:19:50.060Z,18.45
2023-05-04T17:22:17.769Z,18.41
2023-05-04T17:24:45.668Z,18.23
2023-05-04T17:27:13.317Z,18.14
2023-05-04T17:29:41.332Z,18.01
2023-05-04T17:32:08.620Z,18.04
2023-05-04T17:34:36.266Z,17.90
2023-05-04T17:37:03.348Z,18.06
2023-05-04T17:39:33.038Z,18.08
2023-05-04T17:42:00.168Z,18.06
2023-05-04T17:44:29.000Z,17.91
2023-05-04T17:46:56.488Z,18.04
2023-05-04T17:49:23.419Z,17.89
2023-05-04T17:51:50.384Z,17.94
2023-05-04T17:54:17.274Z,17.67
2023-05-04T17:56:44.217Z,17.72
2023-05-04T17:59:11.241Z,17.78
2023-05-04T18:01:38.151Z,17.62
2023-05-04T18:04:05.148Z,17.27
2023-05-04T18:06:32.963Z,17.25
2023-05-04T18:09:01.079Z,17.25
2023-05-04T18:11:28.305Z,17.18
2023-05-04T18:13:56.721Z,17.15
2023-05-04T18:16:24.600Z,16.88
2023-05-04T18:18:52.059Z,16.70
2023-05-04T18:21:19.008Z,16.57
2023-05-04T18:23:46.500Z,16.62
2023-05-04T18:26:22.658Z,16.54
2023-05-04T18:28:50.625Z,16.23
2023-05-04T18:31:17.804Z,16.27
2023-05-04T18:33:45.105Z,16.14
2023-05-04T18:36:12.331Z,16.20
2023-05-04T18:38:39.455Z,16.16
2023-05-04T18:41:06.380Z,16.14
2023-05-04T18:43:33.318Z,16.06
2023-05-04T18:46:07.381Z,15.92
2023-05-04T18:48:34.302Z,15.90
2023-05-04T18:51:01.351Z,15.57
2023-05-04T18:53:28.299Z,15.52
2023-05-04T18:56:05.838Z,15.51
2023-05-04T18:58:53.135Z,15.48
2023-05-04T19:01:20.084Z,15.22
2023-05-04T19:03:47.256Z,15.26
2023-05-04T19:06:14.167Z,15.04
2023-05-04T19:08:41.011Z,14.92
2023-05-04T19:11:08.074Z,14.79
2023-05-04T19:13:34.947Z,14.72
2023-05-04T19:16:01.850Z,14.72
2023-05-04T19:18:28.898Z,14.49
2023-05-04T19:20:55.786Z,14.28
2023-05-04T19:23:22.734Z,14.15
2023-05-04T19:25:49.607Z,14.10
2023-05-04T19:28:16.931Z,14.16
2023-05-04T19:30:43.940Z,14.19
2023-05-04T19:33:11.026Z,13.90
2023-05-04T19:35:38.021Z,13.88
2023-05-04T19:38:06.801Z,13.75
2023-05-04T19:40:34.537Z,13.87
2023-05-04T19:43:01.523Z,13.83
2023-05-04T19:45:28.359Z,13.48
2023-05-04T19:47:55.313Z,13.63
2023-05-04T19:50:22.466Z,13.35
2023-05-04T19:52:49.549Z,13.46
2023-05-04T19:55:19.331Z,13.31
2023-05-04T19:57:47.909Z,13.19
2023-05-04T20:00:35.380Z,13.04
2023-05-04T20:03:02.318Z,13.08
2023-05-04T20:05:29.400Z,12.94
2023-05-04T20:07:56.692Z,12.97
2023-05-04T20:10:23.713Z,13.11
2023-05-04T20:12:50.575Z,13.11
2023-05-04T20:15:17.615Z,13.13
2023-05-04T20:17:44.558Z,13.00
2023-05-04T20:20:12.101Z,13.03
2023-05-04T20:22:39.005Z,12.99
2023-05-04T20:25:05.997Z,12.93
2023-05-04T20:27:32.965Z,13.05
2023-05-04T20:30:00.187Z,12.73
2023-05-04T20:32:27.960Z,12.52
2023-05-04T20:34:54.846Z,12.25
2023-05-04T20:37:21.718Z,11.92
2023-05-04T20:39:52.081Z,12.14
2023-05-04T20:42:18.955Z,12.05
2023-05-04T20:44:45.857Z,12.28
2023-05-04T20:47:12.800Z,12.04
2023-05-04T20:49:39.688Z,11.98
2023-05-04T20:52:06.676Z,11.96
2023-05-04T20:54:33.541Z,11.43
2023-05-04T20:57:00.626Z,11.52
2023-05-04T20:59:27.612Z,11.57
2023-05-04T21:01:54.508Z,11.70
2023-05-04T21:04:21.776Z,11.75
2023-05-04T21:06:48.704Z,11.93
2023-05-04T21:09:15.846Z,11.90
2023-05-04T21:11:42.726Z,11.90
2023-05-04T21:14:09.614Z,11.86
2023-05-04T21:16:36.924Z,11.82
2023-05-04T21:19:03.791Z,11.90
2023-05-04T21:21:32.509Z,11.81
2023-05-04T21:23:59.369Z,11.83
2023-05-04T21:26:26.261Z,11.90
2023-05-04T21:28:53.186Z,11.93
2023-05-04T21:31:20.119Z,11.79
2023-05-04T21:33:47.046Z,11.66
2023-05-04T21:36:14.899Z,11.67
2023-05-04T21:38:42.873Z,11.84
2023-05-04T21:41:16.918Z,11.62
2023-05-04T21:43:44.618Z,11.36
2023-05-04T21:46:12.934Z,10.72
2023-05-04T21:48:40.635Z,10.62
2023-05-04T21:51:07.953Z,10.78
2023-05-04T21:53:34.888Z,10.49
2023-05-04T21:56:06.639Z,10.63
2023-05-04T21:58:33.614Z,10.45
2023-05-04T22:01:00.844Z,10.30
2023-05-04T22:03:29.887Z,10.32
2023-05-04T22:06:00.716Z,10.62
2023-05-04T22:08:28.745Z,10.65
2023-05-04T22:10:57.110Z,10.61
2023-05-04T22:13:24.143Z,10.30
2023-05-04T22:15:51.120Z,10.18
2023-05-04T22:18:18.203Z,10.21
2023-05-04T22:20:45.387Z,10.06
2023-05-04T22:23:13.135Z,9.89
2023-05-04T22:25:40.076Z,9.72
2023-05-04T22:28:06.983Z,9.57
2023-05-04T22:30:33.974Z,9.41
2023-05-04T22:33:01.066Z,9.74
2023-05-04T22:35:28.331Z,9.57
2023-05-04T22:37:55.281Z,9.46
2023-05-04T22:40:25.334Z,9.48
2023-05-04T22:42:52.374Z,9.60
2023-05-04T22:45:19.506Z,9.53
2023-05-04T22:47:49.299Z,9.26
2023-05-04T22:50:16.211Z,9.38
2023-05-04T22:52:43.199Z,9.32
2023-05-04T22:55:10.211Z,9.22
2023-05-04T22:57:37.231Z,9.37
2023-05-04T23:00:08.222Z,9.41
2023-05-04T23:02:35.998Z,9.56
2023-05-04T23:05:03.288Z,9.34
2023-05-04T23:07:30.163Z,9.24
2023-05-04T23:09:57.063Z,9.39
2023-05-04T23:12:24.173Z,9.41
2023-05-04T23:14:52.600Z,9.73
2023-05-04T23:17:19.831Z,9.63
2023-05-04T23:19:47.085Z,9.47
2023-05-04T23:22:15.053Z,9.48
2023-05-04T23:24:42.575Z,9.48
2023-05-04T23:27:10.152Z,9.30
2023-05-04T23:29:37.198Z,8.86
2023-05-04T23:32:04.630Z,9.03
2023-05-04T23:34:32.283Z,8.95
2023-05-04T23:37:00.374Z,8.77
2023-05-04T23:39:27.612Z,8.66
2023-05-04T23:41:54.621Z,8.75
2023-05-04T23:44:21.569Z,8.52
2023-05-04T23:46:48.510Z,8.89
2023-05-04T23:49:15.426Z,8.73
2023-05-04T23:51:42.430Z,8.76
2023-05-04T23:54:09.432Z,8.47
2023-05-04T23:56:36.688Z,8.73
2023-05-04T23:59:04.257Z,8.80
